Time;durP1;ratioP1;P1;durP2;ratioP2;P2;SDS_P1;SDS_P2;PMS_P1;PMS_P2;Temp;Humidity;BMP_temperature;BMP_pressure;BME280_temperature;BME280_humidity;BME280_pressure;Samples;Min_cycle;Max_cycle;Signal;HPM_P1;HPM_P2
2023/01/18 00:00:31;;;;;;;7.73;6.57;;;4.20;1.00;;;;;;5058748;28;20466;-37
2023/01/18 00:02:57;;;;;;;6.50;5.90;;;4.10;18.80;;;;;;5059590;28;20432;-37
2023/01/18 00:05:23;;;;;;;6.90;6.20;;;4.10;1.00;;;;;;5059043;28;20170;-38
2023/01/18 00:07:52;;;;;;;6.57;5.93;;;4.10;32.20;;;;;;5058163;28;20701;-37
2023/01/18 00:10:18;;;;;;;7.53;6.40;;;4.10;39.60;;;;;;5055756;28;20464;-38
2023/01/18 00:12:44;;;;;;;7.90;6.30;;;4.10;39.30;;;;;;5054943;28;20518;-37
2023/01/18 00:15:10;;;;;;;7.23;6.00;;;4.10;20.60;;;;;;5055406;28;20772;-37
2023/01/18 00:17:50;;;;;;;9.03;6.93;;;4.10;36.10;;;;;;5056687;28;20428;-36
2023/01/18 00:20:17;;;;;;;8.67;6.97;;;4.10;58.70;;;;;;5056803;28;21023;-38
2023/01/18 00:22:42;;;;;;;7.07;5.90;;;4.00;85.70;;;;;;5056516;28;20423;-38
2023/01/18 00:25:09;;;;;;;8.07;6.10;;;4.00;92.40;;;;;;5057027;28;20446;-36
2023/01/18 00:27:38;;;;;;;6.33;5.77;;;4.00;84.80;;;;;;5059528;28;20475;-37
2023/01/18 00:30:06;;;;;;;7.07;6.37;;;4.00;87.00;;;;;;5058169;28;20489;-36
2023/01/18 00:32:31;;;;;;;6.23;5.60;;;4.00;89.70;;;;;;5059802;28;20431;-37
2023/01/18 00:34:57;;;;;;;5.50;4.80;;;4.00;99.80;;;;;;5057095;28;20421;-36
2023/01/18 00:37:24;;;;;;;7.10;6.23;;;4.00;99.90;;;;;;5057366;28;20281;-35
2023/01/18 00:39:49;;;;;;;7.77;6.47;;;4.00;99.90;;;;;;5057704;28;20479;-36
2023/01/18 00:45:01;;;;;;;8.30;7.03;;;4.00;99.90;;;;;;5056575;28;20216;-36
2023/01/18 00:47:27;;;;;;;8.17;6.67;;;4.00;99.90;;;;;;5057525;28;20724;-38
2023/01/18 00:49:52;;;;;;;7.47;6.40;;;4.00;99.90;;;;;;5058964;28;20427;-37
2023/01/18 00:52:18;;;;;;;7.87;7.10;;;4.00;99.90;;;;;;5058997;28;20841;-36
2023/01/18 00:54:44;;;;;;;7.23;6.00;;;4.00;99.90;;;;;;5058516;28;20186;-36
2023/01/18 00:57:09;;;;;;;6.37;5.77;;;4.00;99.90;;;;;;5058593;28;20220;-36
2023/01/18 00:59:35;;;;;;;6.63;5.53;;;4.00;99.90;;;;;;5058567;28;20304;-35
2023/01/18 01:02:01;;;;;;;5.73;5.23;;;4.00;99.90;;;;;;5059405;28;20185;-39
2023/01/18 01:07:10;;;;;;;5.27;4.80;;;4.00;99.90;;;;;;5058195;28;20185;-36
2023/01/18 01:09:36;;;;;;;5.87;5.17;;;4.00;99.90;;;;;;5058562;28;20427;-36
2023/01/18 01:26:09;;;;;;;7.70;5.37;;;4.00;79.00;;;;;;5057793;28;20473;-35
2023/01/18 01:28:36;;;;;;;5.87;5.37;;;4.00;19.50;;;;;;5058183;28;20428;-37
2023/01/18 01:31:03;;;;;;;6.20;4.90;;;4.00;52.40;;;;;;5057975;28;20420;-36
2023/01/18 01:33:30;;;;;;;5.63;5.13;;;4.00;28.60;;;;;;5057430;28;20720;-34
2023/01/18 01:35:57;;;;;;;8.07;5.70;;;4.00;25.00;;;;;;5057746;28;20856;-36
2023/01/18 01:38:23;;;;;;;7.03;5.30;;;4.00;35.00;;;;;;5058533;28;20460;-36
2023/01/18 01:41:00;;;;;;;6.10;5.50;;;3.90;47.20;;;;;;5058473;28;20463;-37
2023/01/18 01:43:41;;;;;;;7.90;5.80;;;3.90;41.20;;;;;;5058320;28;20420;-37
2023/01/18 01:46:45;;;;;;;6.23;5.63;;;4.00;4.90;;;;;;5058202;28;20443;-35
2023/01/18 01:49:31;;;;;;;7.10;6.10;;;3.90;1.00;;;;;;5057697;28;20852;-37
2023/01/18 01:52:03;;;;;;;6.80;6.10;;;3.90;1.00;;;;;;5058260;28;20412;-36
2023/01/18 01:54:57;;;;;;;7.60;6.90;;;3.90;1.00;;;;;;5057814;28;20427;-37
2023/01/18 01:57:38;;;;;;;6.83;6.13;;;3.90;1.00;;;;;;5057041;28;20658;-36
2023/01/18 02:00:13;;;;;;;8.53;7.50;;;3.90;1.00;;;;;;5056330;28;20594;-36
2023/01/18 02:02:40;;;;;;;7.00;6.40;;;3.90;20.80;;;;;;5058111;28;20813;-36
2023/01/18 02:05:07;;;;;;;7.33;6.63;;;3.90;33.60;;;;;;5040262;28;20432;-36
2023/01/18 02:07:33;;;;;;;7.80;7.10;;;3.90;74.60;;;;;;5057127;28;20735;-37
2023/01/18 02:09:59;;;;;;;8.17;7.47;;;3.80;99.90;;;;;;5055476;28;21032;-36
2023/01/18 02:12:26;;;;;;;8.17;7.47;;;3.80;99.90;;;;;;5055145;28;20851;-37
2023/01/18 02:14:52;;;;;;;7.87;7.17;;;3.80;99.90;;;;;;5056653;28;20780;-36
2023/01/18 02:17:48;;;;;;;8.03;7.23;;;3.80;99.90;;;;;;5057951;28;20486;-36
2023/01/18 02:20:41;;;;;;;8.33;7.60;;;3.80;99.90;;;;;;5057507;28;20515;-36
2023/01/18 02:23:16;;;;;;;8.27;7.47;;;3.80;99.90;;;;;;5056515;28;20518;-37
2023/01/18 02:25:56;;;;;;;9.43;8.30;;;3.80;99.90;;;;;;5056060;28;20416;-37
2023/01/18 02:28:35;;;;;;;9.27;8.37;;;3.80;99.90;;;;;;5055494;28;20408;-37
2023/01/18 02:31:14;;;;;;;9.27;8.33;;;3.80;99.90;;;;;;5054367;28;20703;-37
2023/01/18 02:33:58;;;;;;;8.90;8.00;;;3.80;99.90;;;;;;5054372;28;20831;-36
2023/01/18 02:36:33;;;;;;;10.93;8.97;;;3.70;99.90;;;;;;5056587;28;20416;-37
2023/01/18 02:39:22;;;;;;;10.10;9.03;;;3.70;99.90;;;;;;5056672;28;20475;-37
2023/01/18 02:47:29;;;;;;;10.63;9.57;;;3.60;99.90;;;;;;5056354;28;20851;-37
2023/01/18 02:49:57;;;;;;;10.10;9.10;;;3.60;99.90;;;;;;5056669;28;20428;-36
2023/01/18 02:52:46;;;;;;;10.70;9.67;;;3.60;99.90;;;;;;5058095;28;20431;-36
2023/01/18 02:55:43;;;;;;;9.73;8.73;;;3.60;99.90;;;;;;5057647;28;20507;-37
2023/01/18 02:58:23;;;;;;;11.43;10.10;;;3.60;99.90;;;;;;5047615;28;20770;-36
2023/01/18 03:01:00;;;;;;;13.30;11.63;;;3.50;99.90;;;;;;5055492;28;20943;-36
2023/01/18 03:03:27;;;;;;;11.37;10.17;;;3.50;99.90;;;;;;5057027;28;20511;-36
2023/01/18 03:05:56;;;;;;;11.17;9.77;;;3.50;99.90;;;;;;5056337;28;20514;-36
2023/01/18 03:08:32;;;;;;;11.93;10.67;;;3.50;99.90;;;;;;5056818;28;20428;-36
2023/01/18 03:11:15;;;;;;;11.13;9.33;;;3.50;99.90;;;;;;5056139;28;20511;-36
2023/01/18 03:14:27;;;;;;;10.07;8.97;;;3.40;99.90;;;;;;5061340;28;20527;-37
2023/01/18 03:16:57;;;;;;;11.20;10.03;;;3.40;99.90;;;;;;5051036;28;20448;-35
2023/01/18 03:20:09;;;;;;;9.77;8.37;;;3.50;99.90;;;;;;5059685;28;20499;-36
2023/01/18 03:25:33;;;;;;;8.53;7.50;;;3.40;99.90;;;;;;5062169;28;20700;-37
2023/01/18 03:33:46;;;;;;;8.20;6.63;;;3.30;99.90;;;;;;5059518;28;20840;-36
2023/01/18 03:36:17;;;;;;;7.23;6.30;;;3.30;99.90;;;;;;5060044;28;20412;-36
2023/01/18 03:38:46;;;;;;;7.53;6.83;;;3.30;99.90;;;;;;5059838;28;20487;-37
2023/01/18 03:41:12;;;;;;;8.17;7.37;;;3.20;99.90;;;;;;5058303;28;20416;-36
2023/01/18 03:43:39;;;;;;;8.17;7.37;;;3.20;1.00;;;;;;5057916;28;20423;-36
2023/01/18 03:46:06;;;;;;;7.37;6.67;;;3.20;1.00;;;;;;5059470;28;20412;-40
2023/01/18 03:48:34;;;;;;;8.40;7.50;;;3.20;1.00;;;;;;5060449;28;20428;-37
2023/01/18 03:51:06;;;;;;;8.27;7.47;;;3.20;1.00;;;;;;5060620;28;20413;-36
2023/01/18 03:53:54;;;;;;;8.30;7.47;;;3.20;1.00;;;;;;5060697;28;20416;-36
2023/01/18 03:56:31;;;;;;;7.60;6.77;;;3.20;1.00;;;;;;5043228;28;20436;-36
2023/01/18 03:58:59;;;;;;;8.90;7.30;;;3.20;99.90;;;;;;5058985;28;20497;-36
2023/01/18 04:01:25;;;;;;;7.70;6.90;;;3.20;99.90;;;;;;5059321;28;20412;-42
2023/01/18 04:03:52;;;;;;;8.80;7.90;;;3.20;99.90;;;;;;5059689;28;20521;-37
2023/01/18 04:06:21;;;;;;;8.97;7.53;;;3.20;99.90;;;;;;5059848;28;20169;-37
2023/01/18 04:08:48;;;;;;;10.50;8.87;;;3.10;1.00;;;;;;5059523;28;20435;-38
2023/01/18 04:11:14;;;;;;;9.20;8.30;;;3.20;1.00;;;;;;5059533;28;20424;-37
2023/01/18 04:13:40;;;;;;;8.63;7.57;;;3.10;1.00;;;;;;5058620;28;20458;-37
2023/01/18 04:16:05;;;;;;;8.90;8.00;;;3.10;1.00;;;;;;5058788;28;20188;-39
2023/01/18 04:18:31;;;;;;;8.30;7.50;;;3.10;1.00;;;;;;5059267;28;20265;-39
2023/01/18 04:20:57;;;;;;;8.40;7.43;;;3.10;1.00;;;;;;5059890;28;20835;-37
2023/01/18 04:23:23;;;;;;;8.80;7.90;;;3.10;1.00;;;;;;5058840;28;20186;-37
2023/01/18 04:25:50;;;;;;;8.20;6.87;;;3.10;1.00;;;;;;5059910;28;20430;-37
2023/01/18 04:28:16;;;;;;;9.17;7.33;;;3.10;1.00;;;;;;5058652;28;20642;-37
2023/01/18 04:30:42;;;;;;;7.80;7.10;;;3.10;1.00;;;;;;5057979;28;20819;-39
2023/01/18 04:33:08;;;;;;;14.63;12.10;;;3.10;1.00;;;;;;5058398;28;20443;-38
2023/01/18 04:35:35;;;;;;;24.17;21.77;;;3.10;1.00;;;;;;5058152;28;20571;-39
2023/01/18 04:38:00;;;;;;;30.77;25.07;;;3.10;1.00;;;;;;5059064;28;20276;-39
2023/01/18 04:40:26;;;;;;;34.23;26.50;;;3.00;1.00;;;;;;5059264;28;20558;-37
2023/01/18 04:42:53;;;;;;;29.67;23.00;;;3.00;1.00;;;;;;5059068;28;20178;-36
2023/01/18 04:45:19;;;;;;;18.33;16.10;;;3.00;1.00;;;;;;5059213;28;20193;-41
2023/01/18 04:47:45;;;;;;;16.80;13.30;;;3.00;1.00;;;;;;5057735;28;20821;-37
2023/01/18 04:50:11;;;;;;;15.00;13.40;;;3.00;1.00;;;;;;5056902;28;20432;-37
2023/01/18 04:52:37;;;;;;;14.13;12.73;;;3.00;1.00;;;;;;5058388;28;20490;-38
2023/01/18 04:55:02;;;;;;;14.27;12.97;;;3.00;1.00;;;;;;5057241;28;20703;-36
2023/01/18 04:57:28;;;;;;;15.07;13.57;;;3.00;1.00;;;;;;5058040;28;20185;-39
2023/01/18 04:59:54;;;;;;;12.43;11.30;;;3.00;1.00;;;;;;5057189;28;20213;-36
2023/01/18 05:02:19;;;;;;;12.33;11.23;;;3.00;1.00;;;;;;5058933;28;20538;-36
2023/01/18 05:04:45;;;;;;;8.47;7.57;;;3.00;1.00;;;;;;5059612;28;20213;-38
2023/01/18 05:07:11;;;;;;;8.23;7.43;;;3.00;1.00;;;;;;5058714;28;20189;-36
2023/01/18 05:09:36;;;;;;;7.30;6.63;;;3.00;1.00;;;;;;5058853;28;20186;-42
2023/01/18 05:12:02;;;;;;;7.10;6.50;;;3.00;1.00;;;;;;5057926;28;20220;-36
2023/01/18 05:14:28;;;;;;;6.97;6.27;;;3.00;1.00;;;;;;5055004;28;20251;-37
2023/01/18 05:16:53;;;;;;;7.77;5.77;;;3.00;1.00;;;;;;5055549;28;20186;-38
2023/01/18 05:19:19;;;;;;;7.43;6.83;;;3.00;1.00;;;;;;5055059;28;20249;-41
2023/01/18 05:21:45;;;;;;;7.53;6.73;;;3.00;1.00;;;;;;5055538;28;20224;-38
2023/01/18 05:24:11;;;;;;;7.00;6.40;;;3.00;1.00;;;;;;5053411;28;20209;-36
2023/01/18 05:26:36;;;;;;;7.00;6.40;;;2.90;1.00;;;;;;5055932;28;20170;-42
2023/01/18 05:29:02;;;;;;;7.00;6.30;;;2.90;1.00;;;;;;5057005;28;20564;-36
2023/01/18 05:31:28;;;;;;;6.40;5.80;;;2.90;1.00;;;;;;5056468;28;20432;-38
2023/01/18 05:33:56;;;;;;;6.33;5.73;;;2.90;1.00;;;;;;5056469;28;20540;-38
2023/01/18 05:36:21;;;;;;;6.50;5.90;;;2.90;1.00;;;;;;5054484;28;20276;-36
2023/01/18 05:38:47;;;;;;;8.67;7.77;;;2.90;1.00;;;;;;5055211;28;20672;-40
2023/01/18 05:41:13;;;;;;;9.30;8.30;;;2.90;1.00;;;;;;5054281;28;20199;-43
2023/01/18 05:43:39;;;;;;;8.40;7.70;;;2.90;1.00;;;;;;5055491;28;20423;-37
2023/01/18 05:46:05;;;;;;;7.60;6.90;;;2.90;1.00;;;;;;5057345;28;20474;-36
2023/01/18 05:48:31;;;;;;;5.60;5.10;;;2.90;1.00;;;;;;5057043;28;20178;-37
2023/01/18 05:50:56;;;;;;;5.40;4.90;;;2.90;13.30;;;;;;5056289;28;20419;-41
2023/01/18 05:53:22;;;;;;;6.00;5.40;;;2.90;10.90;;;;;;5056278;28;20169;-37
2023/01/18 05:55:55;;;;;;;5.47;4.33;;;2.90;1.00;;;;;;5056425;28;20165;-36
2023/01/18 05:58:21;;;;;;;4.80;4.40;;;2.90;1.00;;;;;;5056175;28;20235;-39
2023/01/18 06:00:47;;;;;;;5.37;4.87;;;2.80;1.00;;;;;;5054498;28;20479;-35
2023/01/18 06:03:13;;;;;;;4.40;4.00;;;2.80;1.00;;;;;;5054666;28;20185;-36
2023/01/18 06:05:46;;;;;;;4.97;4.47;;;2.80;1.00;;;;;;5052712;28;20173;-39
2023/01/18 06:08:12;;;;;;;6.00;5.27;;;2.80;1.00;;;;;;5054499;28;20434;-39
2023/01/18 06:10:41;;;;;;;4.30;3.93;;;2.80;1.00;;;;;;5051761;28;20835;-37
2023/01/18 06:13:07;;;;;;;4.43;4.03;;;2.80;1.00;;;;;;5052140;28;20224;-39
2023/01/18 06:15:33;;;;;;;4.90;4.47;;;2.80;1.00;;;;;;5052202;28;20420;-42
2023/01/18 06:17:59;;;;;;;5.30;4.80;;;2.80;1.00;;;;;;5052471;28;20504;-35
2023/01/18 06:20:29;;;;;;;8.67;7.37;;;2.80;1.00;;;;;;5051524;28;20495;-36
2023/01/18 06:22:58;;;;;;;17.57;12.70;;;2.80;1.00;;;;;;5049836;28;20209;-43
2023/01/18 06:25:24;;;;;;;17.63;11.53;;;2.80;1.00;;;;;;5049254;28;20420;-38
2023/01/18 06:27:50;;;;;;;17.80;11.67;;;2.80;1.00;;;;;;5052131;28;20527;-41
2023/01/18 06:30:17;;;;;;;23.00;13.40;;;2.80;1.00;;;;;;5052254;28;20514;-39
2023/01/18 06:32:43;;;;;;;13.70;10.40;;;2.80;1.00;;;;;;5051775;28;20186;-39
2023/01/18 06:35:08;;;;;;;10.17;8.23;;;2.80;1.00;;;;;;5050347;28;20416;-41
2023/01/18 06:37:34;;;;;;;8.30;7.17;;;2.70;1.00;;;;;;5048430;28;20462;-35
2023/01/18 06:40:00;;;;;;;6.30;5.70;;;2.70;1.00;;;;;;5051831;28;20292;-36
2023/01/18 06:42:27;;;;;;;7.50;6.00;;;2.70;1.00;;;;;;5049466;28;20235;-38
2023/01/18 06:44:53;;;;;;;7.50;6.70;;;2.70;1.00;;;;;;5047401;28;20264;-37
2023/01/18 06:47:19;;;;;;;6.30;5.70;;;2.70;1.00;;;;;;5049647;28;20528;-39
2023/01/18 06:49:46;;;;;;;6.17;5.50;;;2.70;1.00;;;;;;5057134;28;20189;-39
2023/01/18 06:52:13;;;;;;;6.13;5.53;;;2.70;1.00;;;;;;5057829;28;20182;-36
2023/01/18 06:54:38;;;;;;;6.97;6.27;;;2.70;1.00;;;;;;5056509;28;20443;-41
2023/01/18 06:57:04;;;;;;;6.43;5.83;;;2.70;18.40;;;;;;5059296;28;20442;-37
2023/01/18 06:59:30;;;;;;;6.87;6.20;;;2.70;39.50;;;;;;5059978;28;20202;-40
2023/01/18 07:01:55;;;;;;;9.60;6.77;;;2.70;14.00;;;;;;5058149;28;20201;-41
2023/01/18 07:04:21;;;;;;;7.50;6.80;;;2.70;34.90;;;;;;5060348;28;20177;-39
2023/01/18 07:06:48;;;;;;;6.90;6.30;;;2.70;1.00;;;;;;5058390;28;20399;-37
2023/01/18 07:09:14;;;;;;;7.50;6.63;;;2.70;1.00;;;;;;5059771;28;20188;-41
2023/01/18 07:11:43;;;;;;;8.03;7.33;;;2.60;1.00;;;;;;5058346;28;20420;-38
2023/01/18 07:14:12;;;;;;;7.83;6.50;;;2.70;1.00;;;;;;5059194;28;20182;-44
2023/01/18 07:16:38;;;;;;;8.17;6.80;;;2.60;1.00;;;;;;5060123;28;20414;-36
2023/01/18 07:19:04;;;;;;;7.57;6.77;;;2.60;1.00;;;;;;5057758;28;20479;-38
2023/01/18 07:21:30;;;;;;;7.83;6.87;;;2.60;1.00;;;;;;5059504;28;20315;-37
2023/01/18 07:23:57;;;;;;;8.00;5.80;;;2.60;1.00;;;;;;5060037;28;20422;-37
2023/01/18 07:26:23;;;;;;;7.67;6.87;;;2.60;1.00;;;;;;5060211;28;20408;-38
2023/01/18 07:28:49;;;;;;;6.70;6.03;;;2.60;1.00;;;;;;5059822;28;20616;-41
2023/01/18 07:31:16;;;;;;;7.93;6.37;;;2.60;1.00;;;;;;5060466;28;20428;-37
2023/01/18 07:33:41;;;;;;;7.13;6.43;;;2.70;1.00;;;;;;5061047;28;20201;-36
2023/01/18 07:36:09;;;;;;;7.10;6.40;;;2.70;1.00;;;;;;5062257;28;20517;-43
2023/01/18 07:38:36;;;;;;;6.53;5.93;;;2.70;99.90;;;;;;5061816;28;20178;-37
2023/01/18 07:41:07;;;;;;;7.47;6.70;;;2.70;99.90;;;;;;5060607;28;20502;-36
2023/01/18 07:43:34;;;;;;;9.23;6.63;;;2.70;99.90;;;;;;5061504;28;20450;-42
2023/01/18 07:46:02;;;;;;;7.30;6.60;;;2.70;93.30;;;;;;5060610;28;20417;-37
2023/01/18 07:48:28;;;;;;;7.40;5.80;;;2.70;1.00;;;;;;5060115;28;20493;-37
2023/01/18 07:50:56;;;;;;;7.60;6.13;;;2.70;5.60;;;;;;5060879;28;20428;-36
2023/01/18 07:53:22;;;;;;;6.67;6.03;;;2.70;1.00;;;;;;5044040;28;20478;-37
2023/01/18 07:55:48;;;;;;;6.93;5.97;;;2.70;1.00;;;;;;5060974;28;20483;-35
2023/01/18 07:58:14;;;;;;;7.50;6.80;;;2.80;1.00;;;;;;5059622;28;20428;-36
2023/01/18 08:00:40;;;;;;;8.40;6.77;;;2.80;1.00;;;;;;5056764;28;20479;-41
2023/01/18 08:03:06;;;;;;;7.53;6.83;;;2.80;1.00;;;;;;5056147;28;20489;-39
2023/01/18 08:05:31;;;;;;;7.33;6.63;;;2.80;99.90;;;;;;5071196;28;20468;-42
2023/01/18 08:07:58;;;;;;;7.17;6.20;;;2.80;99.90;;;;;;5057356;28;20174;-37
2023/01/18 08:10:25;;;;;;;7.20;6.30;;;2.80;99.90;;;;;;5057032;28;20181;-38
2023/01/18 08:12:51;;;;;;;7.77;6.00;;;2.80;99.90;;;;;;5055783;28;20613;-36
2023/01/18 08:15:17;;;;;;;8.27;6.97;;;2.80;99.90;;;;;;5055848;28;20812;-36
2023/01/18 08:17:42;;;;;;;8.70;7.13;;;2.80;99.90;;;;;;5055470;28;20189;-39
2023/01/18 08:20:09;;;;;;;11.50;6.97;;;2.90;99.90;;;;;;5056143;28;20499;-40
2023/01/18 08:22:35;;;;;;;7.53;6.73;;;2.90;99.90;;;;;;5057326;28;20193;-38
2023/01/18 08:25:01;;;;;;;8.53;6.67;;;2.90;99.90;;;;;;5057959;28;21017;-36
2023/01/18 08:27:27;;;;;;;8.20;7.00;;;2.90;15.10;;;;;;5056710;28;20487;-41
2023/01/18 08:29:53;;;;;;;6.87;6.27;;;3.00;1.00;;;;;;5057577;28;20447;-41
2023/01/18 08:32:18;;;;;;;9.00;6.93;;;3.00;1.00;;;;;;5056509;28;20205;-40
2023/01/18 08:34:44;;;;;;;9.40;7.87;;;3.00;1.00;;;;;;5056477;28;20182;-40
2023/01/18 08:37:10;;;;;;;10.17;8.13;;;3.00;1.00;;;;;;5055842;28;20273;-35
2023/01/18 08:39:37;;;;;;;14.87;10.60;;;3.00;99.90;;;;;;5056046;28;20213;-39
2023/01/18 08:42:03;;;;;;;15.93;11.03;;;3.00;99.90;;;;;;5057365;28;20896;-36
2023/01/18 08:44:29;;;;;;;15.83;11.00;;;3.00;99.90;;;;;;5056905;28;20463;-36
2023/01/18 08:46:54;;;;;;;13.70;10.03;;;3.10;99.90;;;;;;5056591;28;20463;-36
2023/01/18 08:49:20;;;;;;;15.80;11.67;;;3.10;99.90;;;;;;5056664;28;20185;-39
2023/01/18 08:51:46;;;;;;;13.20;10.97;;;3.20;99.90;;;;;;5056025;28;20262;-37
2023/01/18 08:54:12;;;;;;;12.53;9.90;;;3.30;99.90;;;;;;5056280;28;20182;-41
2023/01/18 08:56:37;;;;;;;14.17;11.33;;;3.30;99.90;;;;;;5055897;28;20420;-43
2023/01/18 08:59:07;;;;;;;13.67;10.00;;;3.40;99.90;;;;;;5056122;28;20497;-36
2023/01/18 09:01:33;;;;;;;12.77;9.17;;;3.40;28.10;;;;;;5056184;28;20177;-40
2023/01/18 09:03:58;;;;;;;10.67;8.83;;;3.40;1.00;;;;;;5055432;28;20409;-36
2023/01/18 09:06:25;;;;;;;7.87;7.07;;;3.50;1.00;;;;;;5057419;28;20288;-40
2023/01/18 09:08:50;;;;;;;10.83;8.00;;;3.50;1.00;;;;;;5057716;28;20299;-43
2023/01/18 09:11:17;;;;;;;8.80;7.90;;;3.50;1.00;;;;;;5056481;28;20527;-38
2023/01/18 09:13:43;;;;;;;9.93;8.93;;;3.50;1.00;;;;;;5056832;28;20260;-36
2023/01/18 09:16:09;;;;;;;10.50;8.90;;;3.50;1.00;;;;;;5056954;28;20423;-37
2023/01/18 09:18:36;;;;;;;9.90;8.70;;;3.50;1.00;;;;;;5055343;28;20923;-37
2023/01/18 09:21:07;;;;;;;9.60;8.10;;;3.60;1.00;;;;;;5056062;28;20507;-36
2023/01/18 09:23:33;;;;;;;9.93;7.70;;;3.60;1.00;;;;;;5056441;28;20870;-37
2023/01/18 09:26:15;;;;;;;9.60;7.27;;;3.70;1.00;;;;;;5056209;28;20507;-37
2023/01/18 09:28:42;;;;;;;7.90;6.37;;;3.80;1.00;;;;;;5055569;28;20424;-37
2023/01/18 09:31:08;;;;;;;7.07;5.70;;;4.00;99.90;;;;;;5055993;28;20425;-38
2023/01/18 09:33:34;;;;;;;7.70;6.90;;;4.20;99.90;;;;;;5056623;28;20435;-44
2023/01/18 09:36:02;;;;;;;6.97;6.20;;;4.30;99.90;;;;;;5056136;28;20647;-42
2023/01/18 09:38:29;;;;;;;9.67;6.70;;;4.50;28.70;;;;;;5056903;28;20412;-37
2023/01/18 09:40:55;;;;;;;7.67;6.33;;;4.60;1.00;;;;;;5057222;28;20499;-42
2023/01/18 09:43:33;;;;;;;6.63;5.83;;;4.60;1.00;;;;;;5057285;28;20762;-36
2023/01/18 09:46:00;;;;;;;6.03;5.43;;;4.60;1.00;;;;;;5057187;28;20290;-40
2023/01/18 09:48:31;;;;;;;8.33;6.13;;;4.60;1.00;;;;;;5056888;28;20428;-37
2023/01/18 09:51:01;;;;;;;9.20;8.20;;;4.70;1.00;;;;;;5055682;28;20412;-37
2023/01/18 09:53:52;;;;;;;8.80;7.57;;;4.70;1.00;;;;;;5055123;28;20430;-37
2023/01/18 09:56:24;;;;;;;8.63;7.73;;;4.70;1.00;;;;;;5057525;28;20490;-37
2023/01/18 09:59:18;;;;;;;8.40;7.50;;;4.80;1.00;;;;;;5057107;28;20434;-37
2023/01/18 10:01:44;;;;;;;7.10;6.47;;;4.80;1.00;;;;;;5055860;28;20428;-39
2023/01/18 10:04:38;;;;;;;7.57;6.10;;;4.90;1.00;;;;;;5038616;28;20791;-42
2023/01/18 10:07:13;;;;;;;7.20;6.03;;;5.00;1.00;;;;;;5056793;28;20473;-36
2023/01/18 10:09:48;;;;;;;6.57;5.90;;;5.10;99.90;;;;;;5056337;28;20516;-36
2023/01/18 10:12:29;;;;;;;6.07;5.47;;;5.10;99.90;;;;;;5056411;28;20510;-38
2023/01/18 10:15:04;;;;;;;10.10;6.67;;;5.20;99.90;;;;;;5056963;28;20477;-37
2023/01/18 10:17:37;;;;;;;8.27;6.17;;;5.20;99.90;;;;;;5058329;28;20507;-37
2023/01/18 10:20:22;;;;;;;6.13;5.53;;;5.20;99.90;;;;;;5016302;28;20600;-42
2023/01/18 10:22:59;;;;;;;8.07;5.80;;;5.20;99.90;;;;;;4999935;28;20425;-37
2023/01/18 10:25:41;;;;;;;6.47;5.80;;;5.20;99.90;;;;;;5015330;28;20426;-38
2023/01/18 10:28:17;;;;;;;6.83;5.83;;;5.20;99.90;;;;;;5016901;28;20414;-37
2023/01/18 10:31:02;;;;;;;7.23;6.40;;;5.10;99.90;;;;;;5017120;28;20524;-43
2023/01/18 10:33:32;;;;;;;7.80;7.00;;;5.10;99.90;;;;;;5016268;28;20426;-39
2023/01/18 10:36:04;;;;;;;6.77;6.17;;;5.00;99.90;;;;;;5016932;28;20426;-39
2023/01/18 10:38:30;;;;;;;6.57;5.90;;;5.00;99.90;;;;;;5015597;28;20430;-37
2023/01/18 10:40:59;;;;;;;6.90;6.30;;;5.10;99.90;;;;;;5016125;28;20540;-43
2023/01/18 10:43:26;;;;;;;5.77;3.50;;;5.10;1.00;;;;;;5015746;28;21025;-41
2023/01/18 10:45:53;;;;;;;5.80;4.73;;;6.30;1.00;;;;;;5016982;28;20483;-37
2023/01/18 10:48:34;;;;;;;11.10;5.50;;;7.40;1.00;;;;;;5016221;28;20430;-35
2023/01/18 10:51:05;;;;;;;7.13;4.37;;;8.20;1.00;;;;;;5016763;28;20498;-37
2023/01/18 10:53:37;;;;;;;5.53;5.03;;;8.70;1.00;;;;;;5016938;28;20991;-36
2023/01/18 10:56:15;;;;;;;5.80;4.23;;;9.20;99.90;;;;;;5017367;28;20517;-42
2023/01/18 10:58:45;;;;;;;4.50;4.10;;;9.60;1.00;;;;;;5015081;28;20518;-37
2023/01/18 11:01:18;;;;;;;4.83;4.00;;;9.90;99.90;;;;;;5015456;28;20442;-36
2023/01/18 11:03:46;;;;;;;4.93;4.30;;;10.30;99.90;;;;;;5016538;28;20446;-38
2023/01/18 11:06:15;;;;;;;4.70;3.77;;;10.70;99.90;;;;;;5014899;28;20418;-36
2023/01/18 11:08:41;;;;;;;4.70;4.20;;;10.90;1.00;;;;;;5015749;28;20437;-35
2023/01/18 11:11:17;;;;;;;5.07;4.60;;;11.00;1.00;;;;;;5016567;28;20418;-36
2023/01/18 11:13:43;;;;;;;4.93;4.53;;;10.70;99.90;;;;;;5014985;28;20488;-36
2023/01/18 11:16:17;;;;;;;5.90;5.30;;;10.20;1.00;;;;;;5015397;28;20734;-35
2023/01/18 11:19:24;;;;;;;6.50;4.90;;;9.50;99.90;;;;;;5035166;28;20249;-35
2023/01/18 11:21:51;;;;;;;5.13;4.73;;;8.80;99.90;;;;;;5056176;28;20460;-36
2023/01/18 11:24:26;;;;;;;5.40;4.80;;;8.20;99.90;;;;;;5055182;28;20496;-38
2023/01/18 11:27:15;;;;;;;6.73;6.00;;;7.70;99.90;;;;;;5038400;28;20426;-36
2023/01/18 11:29:43;;;;;;;5.13;4.63;;;7.20;99.90;;;;;;5055063;28;20953;-36
2023/01/18 11:32:24;;;;;;;8.90;6.17;;;6.80;99.90;;;;;;5054327;28;20420;-35
2023/01/18 11:34:52;;;;;;;6.97;5.70;;;6.50;99.90;;;;;;5057067;28;20428;-36
2023/01/18 11:37:34;;;;;;;7.57;5.43;;;6.30;99.90;;;;;;5057464;28;20405;-36
2023/01/18 11:40:19;;;;;;;6.90;5.60;;;6.10;99.90;;;;;;5059133;28;20469;-35
2023/01/18 11:42:45;;;;;;;5.93;5.27;;;5.90;99.90;;;;;;5058594;28;20438;-37
2023/01/18 11:45:20;;;;;;;6.03;4.40;;;5.80;99.90;;;;;;5059465;28;20416;-34
2023/01/18 11:48:07;;;;;;;8.40;5.33;;;5.70;99.90;;;;;;5059138;28;20481;-36
2023/01/18 11:50:44;;;;;;;5.40;4.20;;;5.70;99.90;;;;;;5059647;28;20481;-37
2023/01/18 11:53:24;;;;;;;5.17;4.20;;;5.60;99.90;;;;;;5059683;28;20427;-37
2023/01/18 11:56:21;;;;;;;4.67;3.83;;;5.60;99.90;;;;;;5059688;28;20416;-35
2023/01/18 11:58:48;;;;;;;5.43;3.90;;;5.60;99.90;;;;;;5035695;28;20443;-38
2023/01/18 12:01:42;;;;;;;5.93;3.90;;;5.50;99.90;;;;;;5059355;28;20415;-37
2023/01/18 12:04:31;;;;;;;5.90;4.20;;;5.40;99.90;;;;;;5058482;28;20434;-41
2023/01/18 12:07:35;;;;;;;5.30;4.43;;;5.30;99.90;;;;;;5056683;28;20420;-37
2023/01/18 12:10:01;;;;;;;6.47;4.10;;;5.30;99.90;;;;;;5057536;28;20416;-36
2023/01/18 12:12:26;;;;;;;4.90;4.40;;;5.30;99.90;;;;;;5056849;28;20419;-38
2023/01/18 12:15:02;;;;;;;6.67;4.37;;;5.30;99.90;;;;;;5056642;28;20754;-35
2023/01/18 12:17:43;;;;;;;6.07;4.43;;;5.30;99.90;;;;;;5056982;28;20216;-38
2023/01/18 12:20:17;;;;;;;9.10;4.30;;;5.30;99.90;;;;;;5055735;28;20472;-37
2023/01/18 12:22:50;;;;;;;6.40;4.80;;;5.30;99.90;;;;;;5055559;28;20426;-38
2023/01/18 12:25:37;;;;;;;5.07;4.57;;;5.30;99.90;;;;;;5056141;28;20503;-36
2023/01/18 12:28:38;;;;;;;4.80;4.30;;;5.20;99.90;;;;;;5055710;28;20419;-36
2023/01/18 12:31:07;;;;;;;22.53;11.33;;;5.30;99.90;;;;;;4995005;28;20719;-37
2023/01/18 12:33:51;;;;;;;39.47;20.20;;;5.20;99.90;;;;;;5044377;28;20420;-35
2023/01/18 12:36:41;;;;;;;29.67;15.37;;;5.20;99.90;;;;;;5057905;28;20412;-37
2023/01/18 12:39:39;;;;;;;13.30;8.80;;;5.20;99.90;;;;;;5057226;28;20486;-35
2023/01/18 12:42:09;;;;;;;16.43;9.27;;;5.30;99.90;;;;;;5058506;28;20424;-37
2023/01/18 12:44:51;;;;;;;13.40;8.60;;;5.40;99.90;;;;;;5056533;28;20421;-37
2023/01/18 12:47:38;;;;;;;10.63;7.33;;;5.40;99.90;;;;;;5055513;28;20858;-35
2023/01/18 12:50:23;;;;;;;11.40;7.50;;;5.40;99.90;;;;;;5055476;28;20427;-36
2023/01/18 12:52:52;;;;;;;22.47;13.03;;;5.50;99.90;;;;;;5056352;28;20436;-35
2023/01/18 12:55:21;;;;;;;28.10;16.53;;;5.60;99.90;;;;;;5055362;28;20451;-36
2023/01/18 12:57:53;;;;;;;23.90;13.80;;;5.60;99.90;;;;;;5055381;28;20430;-37
2023/01/18 13:00:24;;;;;;;15.03;10.60;;;5.70;99.90;;;;;;5054884;28;20467;-40
2023/01/18 13:02:53;;;;;;;9.93;7.23;;;5.70;99.90;;;;;;5055556;28;20979;-39
2023/01/18 13:05:25;;;;;;;10.77;8.60;;;5.70;99.90;;;;;;5056324;28;20408;-37
2023/01/18 13:08:03;;;;;;;11.03;8.37;;;5.70;99.90;;;;;;5056640;28;20424;-36
2023/01/18 13:10:29;;;;;;;11.13;7.73;;;5.70;99.90;;;;;;5057040;28;20416;-36
2023/01/18 13:12:56;;;;;;;12.93;8.53;;;5.70;96.80;;;;;;5056154;28;20438;-36
2023/01/18 13:15:24;;;;;;;11.70;8.43;;;5.70;78.40;;;;;;5057043;28;20186;-39
2023/01/18 13:18:01;;;;;;;12.10;9.80;;;5.70;69.40;;;;;;5056063;28;20416;-37
2023/01/18 13:20:45;;;;;;;13.47;9.60;;;5.60;63.20;;;;;;5056615;28;20551;-37
2023/01/18 13:23:16;;;;;;;10.90;7.80;;;5.70;59.50;;;;;;5056561;28;20686;-40
2023/01/18 13:25:48;;;;;;;9.80;8.50;;;5.80;59.30;;;;;;5057402;28;20408;-41
2023/01/18 13:28:24;;;;;;;6.77;5.87;;;5.80;47.20;;;;;;5055982;28;20670;-46
2023/01/18 13:30:59;;;;;;;6.90;5.80;;;5.80;29.50;;;;;;5053863;28;20477;-37
2023/01/18 13:33:27;;;;;;;6.80;5.27;;;5.80;13.00;;;;;;5054878;28;20812;-38
2023/01/18 13:36:06;;;;;;;9.43;5.57;;;5.70;6.40;;;;;;5055112;28;20428;-35
2023/01/18 13:38:37;;;;;;;8.77;6.20;;;5.70;1.00;;;;;;5054664;28;20443;-36
2023/01/18 13:41:09;;;;;;;8.20;5.47;;;5.50;1.00;;;;;;5049535;28;20464;-41
2023/01/18 13:43:35;;;;;;;8.97;6.10;;;5.50;1.00;;;;;;5056307;28;20417;-36
2023/01/18 13:46:07;;;;;;;7.47;3.50;;;5.40;1.00;;;;;;5056549;28;20489;-36
2023/01/18 13:48:46;;;;;;;7.03;3.93;;;5.70;1.00;;;;;;5056036;28;20177;-40
2023/01/18 13:51:39;;;;;;;6.93;5.10;;;6.50;99.90;;;;;;5056373;28;20733;-39